createdAt,value
2023-01-09T00:01:49.180Z,3.85
2023-01-09T00:03:51.992Z,3.75
2023-01-09T00:05:54.720Z,4.85
2023-01-09T00:07:57.241Z,6.03
2023-01-09T00:10:02.463Z,3.30
2023-01-09T00:12:05.630Z,5.55
2023-01-09T00:14:10.314Z,8.45
2023-01-09T00:16:13.510Z,4.00
2023-01-09T00:18:18.662Z,6.20
2023-01-09T00:20:21.064Z,3.92
2023-01-09T00:22:23.457Z,13.23
2023-01-09T00:24:26.070Z,15.40
2023-01-09T00:26:28.755Z,4.00
2023-01-09T00:28:32.895Z,4.07
2023-01-09T00:30:37.085Z,21.45
2023-01-09T00:32:40.188Z,5.32
2023-01-09T00:34:45.286Z,3.90
2023-01-09T00:36:47.832Z,5.43
2023-01-09T00:38:50.561Z,3.55
2023-01-09T00:40:54.315Z,3.38
2023-01-09T00:42:59.993Z,3.83
2023-01-09T00:45:05.534Z,3.45
2023-01-09T00:47:11.207Z,3.97
2023-01-09T00:49:14.783Z,3.40
2023-01-09T00:51:20.655Z,3.72
2023-01-09T00:53:25.358Z,3.92
2023-01-09T00:55:27.977Z,3.40
2023-01-09T00:57:31.073Z,3.13
2023-01-09T00:59:33.677Z,3.20
2023-01-09T01:01:36.475Z,3.45
2023-01-09T01:03:39.806Z,4.78
2023-01-09T01:06:01.173Z,2.75
2023-01-09T01:08:10.999Z,3.80
2023-01-09T01:10:17.033Z,2.90
2023-01-09T01:12:19.661Z,2.60
2023-01-09T01:14:22.205Z,3.58
2023-01-09T01:16:25.836Z,2.50
2023-01-09T01:18:29.037Z,3.95
2023-01-09T01:20:31.960Z,2.70
2023-01-09T01:22:34.700Z,2.90
2023-01-09T01:24:39.807Z,3.75
2023-01-09T01:26:44.043Z,2.63
2023-01-09T01:28:46.506Z,2.60
2023-01-09T01:30:50.834Z,2.90
2023-01-09T01:32:53.309Z,2.70
2023-01-09T01:34:56.010Z,5.60
2023-01-09T01:36:58.636Z,3.20
2023-01-09T01:39:01.425Z,3.10
2023-01-09T01:41:07.302Z,3.40
2023-01-09T01:43:12.926Z,4.07
2023-01-09T01:45:16.983Z,3.53
2023-01-09T01:47:23.054Z,4.15
2023-01-09T01:49:25.690Z,4.45
2023-01-09T01:51:31.017Z,4.32
2023-01-09T01:53:36.691Z,4.45
2023-01-09T01:55:42.993Z,4.70
2023-01-09T01:57:53.712Z,4.95
2023-01-09T01:59:58.922Z,5.00
2023-01-09T02:02:03.543Z,5.78
2023-01-09T02:04:23.784Z,5.30
2023-01-09T02:06:33.332Z,5.47
2023-01-09T02:08:36.402Z,5.55
2023-01-09T02:10:39.889Z,5.50
2023-01-09T02:12:55.194Z,15.43
2023-01-09T02:14:59.997Z,5.38
2023-01-09T02:17:19.249Z,7.47
2023-01-09T02:19:45.892Z,6.63
2023-01-09T02:21:58.967Z,5.68
2023-01-09T02:24:24.961Z,5.03
2023-01-09T02:26:53.624Z,8.25
2023-01-09T02:29:28.853Z,5.70
2023-01-09T02:31:40.903Z,5.75
2023-01-09T02:33:52.336Z,5.20
2023-01-09T02:36:08.553Z,4.82
2023-01-09T02:38:22.465Z,5.00
2023-01-09T02:40:29.814Z,5.65
2023-01-09T02:42:33.667Z,5.07
2023-01-09T02:44:37.070Z,5.40
2023-01-09T02:46:42.323Z,5.55
2023-01-09T02:48:46.308Z,5.05
2023-01-09T02:50:58.787Z,5.78
2023-01-09T02:53:36.587Z,5.88
2023-01-09T02:55:58.893Z,5.25
2023-01-09T02:58:09.722Z,5.28
2023-01-09T03:00:27.127Z,5.43
2023-01-09T03:02:41.317Z,5.50
2023-01-09T03:04:53.762Z,5.95
2023-01-09T03:07:02.723Z,5.38
2023-01-09T03:09:12.599Z,6.47
2023-01-09T03:11:15.525Z,5.25
2023-01-09T03:13:20.818Z,7.32
2023-01-09T03:15:28.201Z,5.53
2023-01-09T03:17:41.094Z,8.27
2023-01-09T03:19:46.810Z,9.63
2023-01-09T03:21:50.184Z,5.95
2023-01-09T03:23:57.198Z,6.93
2023-01-09T03:25:59.824Z,6.30
2023-01-09T03:28:04.600Z,6.13
2023-01-09T03:30:08.843Z,10.38
2023-01-09T03:32:13.313Z,17.80
2023-01-09T03:34:18.560Z,6.00
2023-01-09T03:36:22.297Z,7.15
2023-01-09T03:38:25.017Z,5.95
2023-01-09T03:40:27.507Z,7.97
2023-01-09T03:42:30.145Z,5.70
2023-01-09T03:44:32.537Z,6.07
2023-01-09T03:46:39.151Z,7.80
2023-01-09T03:48:41.798Z,6.28
2023-01-09T03:50:48.754Z,8.60
2023-01-09T03:52:51.395Z,6.45
2023-01-09T03:54:54.136Z,6.10
2023-01-09T03:56:58.678Z,11.80
2023-01-09T03:59:01.087Z,7.10
2023-01-09T04:01:05.535Z,7.10
2023-01-09T04:03:08.759Z,6.75
2023-01-09T04:05:12.986Z,6.43
2023-01-09T04:07:18.196Z,6.32
2023-01-09T04:09:21.081Z,8.10
2023-01-09T04:11:23.603Z,6.68
2023-01-09T04:13:26.118Z,7.30
2023-01-09T04:15:28.597Z,7.03
2023-01-09T04:17:34.008Z,7.13
2023-01-09T04:19:39.194Z,7.13
2023-01-09T04:21:41.738Z,10.52
2023-01-09T04:23:46.765Z,7.20
2023-01-09T04:25:49.374Z,6.90
2023-01-09T04:27:52.201Z,7.60
2023-01-09T04:29:59.274Z,8.57
2023-01-09T04:32:02.021Z,6.50
2023-01-09T04:34:07.888Z,6.78
2023-01-09T04:36:13.287Z,8.48
2023-01-09T04:38:16.164Z,9.50
2023-01-09T04:40:22.562Z,7.13
2023-01-09T04:42:25.214Z,7.60
2023-01-09T04:44:27.636Z,8.65
2023-01-09T04:46:30.254Z,7.40
2023-01-09T04:48:32.975Z,8.38
2023-01-09T04:50:35.391Z,7.32
2023-01-09T04:52:39.084Z,9.27
2023-01-09T04:54:41.927Z,8.45
2023-01-09T04:56:47.530Z,8.27
2023-01-09T04:58:50.053Z,8.65
2023-01-09T05:00:52.752Z,7.50
2023-01-09T05:02:55.365Z,8.45
2023-01-09T05:04:57.996Z,12.40
2023-01-09T05:07:00.505Z,8.68
2023-01-09T05:09:03.317Z,10.25
2023-01-09T05:11:06.239Z,8.80
2023-01-09T05:13:14.298Z,11.63
2023-01-09T05:15:16.838Z,10.30
2023-01-09T05:17:19.484Z,9.00
2023-01-09T05:19:21.986Z,9.15
2023-01-09T05:21:24.724Z,9.50
2023-01-09T05:23:27.259Z,9.05
2023-01-09T05:25:29.876Z,9.90
2023-01-09T05:27:33.290Z,12.48
2023-01-09T05:29:38.480Z,10.25
2023-01-09T05:31:42.724Z,10.00
2023-01-09T05:33:45.232Z,11.82
2023-01-09T05:35:48.664Z,11.48
2023-01-09T05:37:51.460Z,10.98
2023-01-09T05:39:53.914Z,14.00
2023-01-09T05:41:56.595Z,11.85
2023-01-09T05:43:59.410Z,13.35
2023-01-09T05:46:04.631Z,11.65
2023-01-09T05:48:07.300Z,12.85
2023-01-09T05:50:11.475Z,11.75
2023-01-09T05:52:16.047Z,14.52
2023-01-09T05:54:21.906Z,13.55
2023-01-09T05:56:24.816Z,12.65
2023-01-09T05:58:27.594Z,15.57
2023-01-09T06:00:30.140Z,14.48
2023-01-09T06:02:35.416Z,14.20
2023-01-09T06:04:38.095Z,15.02
2023-01-09T06:06:42.123Z,15.55
2023-01-09T06:08:44.677Z,15.93
2023-01-09T06:10:48.004Z,19.77
2023-01-09T06:12:51.775Z,13.80
2023-01-09T06:14:54.578Z,18.00
2023-01-09T06:16:57.100Z,15.73
2023-01-09T06:19:02.159Z,12.85
2023-01-09T06:21:05.756Z,21.95
2023-01-09T06:23:08.308Z,15.50
2023-01-09T06:25:11.465Z,21.50
2023-01-09T06:27:13.864Z,15.30
2023-01-09T06:29:16.665Z,14.20
2023-01-09T06:31:19.103Z,21.55
2023-01-09T06:33:21.822Z,13.18
2023-01-09T06:35:27.300Z,14.77
2023-01-09T06:37:30.781Z,16.60
2023-01-09T06:39:33.258Z,14.35
2023-01-09T06:41:35.649Z,13.63
2023-01-09T06:43:38.095Z,13.48
2023-01-09T06:45:41.756Z,16.13
2023-01-09T06:47:44.540Z,14.77
2023-01-09T06:49:46.987Z,18.20
2023-01-09T06:51:52.517Z,14.43
2023-01-09T06:53:55.101Z,19.38
2023-01-09T06:56:17.531Z,14.13
2023-01-09T06:58:39.819Z,15.48
2023-01-09T07:01:02.574Z,13.98
2023-01-09T07:03:25.006Z,17.17
2023-01-09T07:05:38.408Z,11.93
2023-01-09T07:07:43.600Z,19.90
2023-01-09T07:09:45.992Z,19.67
2023-01-09T07:11:48.565Z,15.00
2023-01-09T07:13:51.480Z,24.30
2023-01-09T07:15:53.998Z,12.95
2023-01-09T07:17:57.630Z,16.88
2023-01-09T07:20:00.339Z,14.25
2023-01-09T07:22:02.684Z,15.50
2023-01-09T07:24:07.950Z,13.63
2023-01-09T07:26:13.195Z,15.57
2023-01-09T07:28:15.622Z,14.75
2023-01-09T07:30:18.539Z,15.48
2023-01-09T07:32:21.161Z,15.80
2023-01-09T07:34:26.229Z,13.00
2023-01-09T07:36:28.792Z,20.05
2023-01-09T07:38:33.088Z,10.25
2023-01-09T07:40:40.526Z,16.40
2023-01-09T07:42:42.857Z,10.18
2023-01-09T07:44:45.395Z,13.77
2023-01-09T07:46:47.887Z,13.95
2023-01-09T07:48:50.235Z,11.80
2023-01-09T07:50:52.653Z,10.25
2023-01-09T07:52:55.329Z,12.02
2023-01-09T07:54:57.693Z,11.10
2023-01-09T07:57:02.877Z,11.20
2023-01-09T07:59:05.417Z,11.07
2023-01-09T08:01:08.511Z,9.73
2023-01-09T08:03:11.065Z,9.98
2023-01-09T08:05:15.935Z,9.50
2023-01-09T08:07:18.664Z,12.57
2023-01-09T08:09:22.092Z,9.13
2023-01-09T08:11:25.091Z,9.32
2023-01-09T08:13:35.603Z,9.93
2023-01-09T08:15:38.081Z,11.25
2023-01-09T08:17:43.264Z,8.07
2023-01-09T08:19:45.677Z,9.10
2023-01-09T08:21:48.229Z,9.80
2023-01-09T08:23:50.765Z,15.65
2023-01-09T08:25:54.105Z,10.45
2023-01-09T08:27:56.756Z,8.67
2023-01-09T08:30:01.971Z,10.13
2023-01-09T08:32:04.663Z,10.82
2023-01-09T08:34:07.116Z,8.32
2023-01-09T08:36:10.240Z,8.88
2023-01-09T08:38:12.716Z,9.75
2023-01-09T08:40:17.192Z,12.10
2023-01-09T08:42:41.202Z,8.75
2023-01-09T08:45:02.405Z,10.25
2023-01-09T08:47:08.279Z,9.57
2023-01-09T08:49:10.836Z,10.73
2023-01-09T08:51:13.506Z,10.68
2023-01-09T08:53:16.064Z,12.63
2023-01-09T08:55:18.627Z,9.82
2023-01-09T08:57:21.358Z,8.32
2023-01-09T08:59:23.796Z,10.35
2023-01-09T09:01:26.291Z,7.97
2023-01-09T09:03:31.357Z,9.57
2023-01-09T09:05:33.938Z,8.32
2023-01-09T09:07:38.974Z,10.07
2023-01-09T09:09:41.357Z,8.75
2023-01-09T09:11:43.893Z,8.77
2023-01-09T09:16:23.996Z,9.93
2023-01-09T09:18:49.023Z,7.10
2023-01-09T09:21:11.550Z,9.30
2023-01-09T09:23:33.980Z,7.57
2023-01-09T09:25:56.428Z,7.30
2023-01-09T09:28:18.863Z,7.70
2023-01-09T09:30:41.396Z,9.10
2023-01-09T09:33:04.873Z,8.45
2023-01-09T09:35:31.216Z,10.02
2023-01-09T09:37:54.820Z,10.25
2023-01-09T09:40:23.307Z,6.47
2023-01-09T09:43:43.396Z,7.25
2023-01-09T09:46:14.203Z,6.68
2023-01-09T09:48:39.102Z,10.60
2023-01-09T09:51:32.618Z,8.55
2023-01-09T09:53:39.695Z,12.23
2023-01-09T09:55:43.121Z,6.72
2023-01-09T09:57:47.869Z,9.25
2023-01-09T09:59:51.708Z,9.95
2023-01-09T10:01:58.096Z,6.60
2023-01-09T10:04:03.905Z,8.85
2023-01-09T10:06:15.516Z,7.50
2023-01-09T10:08:30.210Z,10.15
2023-01-09T10:10:37.561Z,7.20
2023-01-09T10:12:46.408Z,8.57
2023-01-09T10:14:48.920Z,9.30
2023-01-09T10:17:12.823Z,6.40
2023-01-09T10:19:28.419Z,6.78
2023-01-09T10:21:41.205Z,6.38
2023-01-09T10:24:05.348Z,6.40
2023-01-09T10:26:16.864Z,6.15
2023-01-09T10:28:36.650Z,6.40
2023-01-09T10:30:45.726Z,6.97
2023-01-09T10:33:01.323Z,7.15
2023-01-09T10:35:22.978Z,8.55
2023-01-09T10:37:32.401Z,11.82
2023-01-09T10:39:41.185Z,6.60
2023-01-09T10:41:51.411Z,8.38
2023-01-09T10:43:58.896Z,7.07
2023-01-09T10:46:06.570Z,8.68
2023-01-09T10:48:24.311Z,6.47
2023-01-09T10:50:31.253Z,7.03
2023-01-09T10:52:40.019Z,5.72
2023-01-09T10:54:55.355Z,6.55
2023-01-09T10:57:02.810Z,9.43
2023-01-09T10:59:05.402Z,8.75
2023-01-09T11:01:09.437Z,7.18
2023-01-09T11:03:13.354Z,7.72
2023-01-09T11:05:20.285Z,11.82
2023-01-09T11:07:26.222Z,6.15
2023-01-09T11:09:58.212Z,8.90
2023-01-09T11:12:00.768Z,6.07
2023-01-09T11:14:12.993Z,6.55
2023-01-09T11:16:19.890Z,5.72
2023-01-09T11:18:24.820Z,6.15
2023-01-09T11:20:29.720Z,7.38
2023-01-09T11:22:43.835Z,7.28
2023-01-09T11:25:00.683Z,7.38
2023-01-09T11:27:24.921Z,10.35
2023-01-09T11:29:30.535Z,6.57
2023-01-09T11:31:35.504Z,12.57
2023-01-09T11:33:43.139Z,9.07
2023-01-09T11:35:59.607Z,8.05
2023-01-09T11:38:08.973Z,6.93
2023-01-09T11:40:21.213Z,5.88
2023-01-09T11:42:44.054Z,7.55
2023-01-09T11:44:47.284Z,5.90
2023-01-09T11:46:49.766Z,6.65
2023-01-09T11:48:57.541Z,7.28
2023-01-09T11:51:01.739Z,6.50
2023-01-09T11:53:13.757Z,9.77
2023-01-09T11:55:20.282Z,8.00
2023-01-09T11:57:24.564Z,6.88
2023-01-09T12:01:53.202Z,6.88
2023-01-09T12:04:18.605Z,13.43
2023-01-09T12:06:30.139Z,6.80
2023-01-09T12:08:41.627Z,6.97
2023-01-09T12:11:09.000Z,9.10
2023-01-09T12:13:26.047Z,10.73
2023-01-09T12:15:34.985Z,10.05
2023-01-09T12:18:03.547Z,6.93
2023-01-09T12:20:22.865Z,7.20
2023-01-09T12:22:36.568Z,6.53
2023-01-09T12:25:00.885Z,6.95
2023-01-09T12:27:22.418Z,6.57
2023-01-09T12:29:38.082Z,7.45
2023-01-09T12:32:04.640Z,6.68
2023-01-09T12:34:21.425Z,12.02
2023-01-09T12:36:29.606Z,7.55
2023-01-09T12:38:47.261Z,9.77
2023-01-09T12:41:02.451Z,12.65
2023-01-09T12:43:16.567Z,8.52
2023-01-09T12:45:39.310Z,10.88
2023-01-09T12:47:46.581Z,8.73
2023-01-09T12:49:55.698Z,7.68
2023-01-09T12:52:06.077Z,6.63
2023-01-09T12:54:16.594Z,8.10
2023-01-09T12:56:23.923Z,7.18
2023-01-09T12:58:36.848Z,7.72
2023-01-09T13:00:43.217Z,8.10
2023-01-09T13:02:50.442Z,9.95
2023-01-09T13:04:58.946Z,6.97
2023-01-09T13:07:05.877Z,11.65
2023-01-09T13:09:21.211Z,7.35
2023-01-09T13:11:31.666Z,7.75
2023-01-09T13:13:45.503Z,8.75
2023-01-09T13:15:51.208Z,7.68
2023-01-09T13:17:56.973Z,14.23
2023-01-09T13:19:59.603Z,7.45
2023-01-09T13:22:05.513Z,7.40
2023-01-09T13:24:16.388Z,11.32
2023-01-09T13:26:22.889Z,6.75
2023-01-09T13:28:29.122Z,7.40
2023-01-09T13:30:51.568Z,11.25
2023-01-09T13:33:05.088Z,11.65
2023-01-09T13:35:13.127Z,8.23
2023-01-09T13:37:22.855Z,9.77
2023-01-09T13:39:27.732Z,7.68
2023-01-09T13:41:52.250Z,9.07
2023-01-09T13:43:57.552Z,9.23
2023-01-09T13:46:03.569Z,11.77
2023-01-09T13:48:29.422Z,12.63
2023-01-09T13:50:31.908Z,8.90
2023-01-09T13:52:38.602Z,13.52
2023-01-09T13:55:23.903Z,8.88
2023-01-09T13:57:29.703Z,9.32
2023-01-09T13:59:32.313Z,13.30
2023-01-09T14:01:46.163Z,8.82
2023-01-09T14:04:23.592Z,10.63
2023-01-09T14:06:28.272Z,12.70
2023-01-09T14:08:32.097Z,10.00
2023-01-09T14:10:37.534Z,8.30
2023-01-09T14:12:41.982Z,12.13
2023-01-09T14:14:46.327Z,9.50
2023-01-09T14:16:51.668Z,9.55
2023-01-09T14:19:02.185Z,10.30
2023-01-09T14:25:55.447Z,10.50
2023-01-09T14:28:19.011Z,11.48
2023-01-09T14:30:33.561Z,14.50
2023-01-09T14:32:57.411Z,9.85
2023-01-09T14:35:10.626Z,11.65
2023-01-09T14:37:14.228Z,11.13
2023-01-09T14:39:18.286Z,15.80
2023-01-09T14:41:44.103Z,8.73
2023-01-09T14:43:56.549Z,14.38
2023-01-09T14:46:05.823Z,8.15
2023-01-09T14:48:13.242Z,8.10
2023-01-09T14:50:20.692Z,10.95
2023-01-09T14:52:26.920Z,10.88
2023-01-09T14:54:34.769Z,12.23
2023-01-09T14:56:46.605Z,13.75
2023-01-09T14:58:50.800Z,12.57
2023-01-09T15:01:00.771Z,14.63
2023-01-09T15:03:04.269Z,10.90
2023-01-09T15:05:12.421Z,10.93
2023-01-09T15:07:21.260Z,13.75
2023-01-09T15:09:27.149Z,9.57
2023-01-09T15:11:31.270Z,12.68
2023-01-09T15:13:37.833Z,11.57
2023-01-09T15:15:45.880Z,7.07
2023-01-09T15:17:54.085Z,9.60
2023-01-09T15:19:58.268Z,14.95
2023-01-09T15:22:05.269Z,13.05
2023-01-09T15:24:21.556Z,12.07
2023-01-09T15:26:26.802Z,9.13
2023-01-09T15:28:32.432Z,9.40
2023-01-09T15:30:36.354Z,7.75
2023-01-09T15:32:40.654Z,10.95
2023-01-09T15:34:44.608Z,9.23
2023-01-09T15:36:49.513Z,11.82
2023-01-09T15:38:55.366Z,10.90
2023-01-09T15:41:00.171Z,6.40
2023-01-09T15:43:04.709Z,8.55
2023-01-09T15:45:23.035Z,12.32
2023-01-09T15:47:29.411Z,13.40
2023-01-09T15:49:33.954Z,12.02
2023-01-09T15:51:36.562Z,10.55
2023-01-09T15:53:43.481Z,9.82
2023-01-09T15:56:08.064Z,5.67
2023-01-09T15:58:29.910Z,10.23
2023-01-09T16:00:36.368Z,12.48
2023-01-09T16:03:02.835Z,7.00
2023-01-09T16:05:07.312Z,9.60
2023-01-09T16:07:14.053Z,9.25
2023-01-09T16:09:18.069Z,6.28
2023-01-09T16:11:25.999Z,5.22
2023-01-09T16:13:31.217Z,7.45
2023-01-09T16:15:35.349Z,11.65
2023-01-09T16:18:00.601Z,7.93
2023-01-09T16:22:22.531Z,4.85
2023-01-09T16:24:26.865Z,9.13
2023-01-09T16:26:32.543Z,10.73
2023-01-09T16:28:35.081Z,5.03
2023-01-09T16:30:39.584Z,13.00
2023-01-09T16:32:48.525Z,5.10
2023-01-09T16:34:53.602Z,7.70
2023-01-09T16:36:56.405Z,10.13
2023-01-09T16:39:00.939Z,7.30
2023-01-09T16:41:23.455Z,18.42
2023-01-09T16:43:29.477Z,11.13
2023-01-09T16:45:35.136Z,12.52
2023-01-09T16:47:37.642Z,8.88
2023-01-09T16:51:44.218Z,6.13
2023-01-09T16:53:46.951Z,5.20
2023-01-09T16:55:49.859Z,11.18
2023-01-09T16:57:52.375Z,7.00
2023-01-09T17:00:00.219Z,13.90
2023-01-09T17:02:02.605Z,12.90
2023-01-09T17:04:11.006Z,13.13
2023-01-09T17:06:18.038Z,11.25
2023-01-09T17:08:22.329Z,9.98
2023-01-09T17:10:25.072Z,11.20
2023-01-09T17:12:28.094Z,8.75
2023-01-09T17:14:31.027Z,16.10
2023-01-09T17:16:37.086Z,13.38
2023-01-09T17:18:40.384Z,8.98
2023-01-09T17:20:45.140Z,13.00
2023-01-09T17:22:47.546Z,7.07
2023-01-09T17:25:09.102Z,14.10
2023-01-09T17:27:30.055Z,9.60
2023-01-09T17:29:33.626Z,9.02
2023-01-09T17:31:38.826Z,6.00
2023-01-09T17:33:41.525Z,7.05
2023-01-09T17:35:45.237Z,10.75
2023-01-09T17:37:47.691Z,9.77
2023-01-09T17:39:50.147Z,10.35
2023-01-09T17:41:52.502Z,13.23
2023-01-09T17:43:55.866Z,7.95
2023-01-09T17:46:00.244Z,12.18
2023-01-09T17:48:05.808Z,7.88
2023-01-09T17:50:17.595Z,8.60
2023-01-09T17:52:22.017Z,13.73
2023-01-09T17:54:26.511Z,11.77
2023-01-09T17:56:34.270Z,7.43
2023-01-09T17:58:37.181Z,11.35
2023-01-09T18:00:39.812Z,8.20
2023-01-09T18:02:42.338Z,13.15
2023-01-09T18:04:47.456Z,13.48
2023-01-09T18:06:49.847Z,13.25
2023-01-09T18:08:52.288Z,21.65
2023-01-09T18:10:54.955Z,16.27
2023-01-09T18:12:57.383Z,13.73
2023-01-09T18:14:59.913Z,13.93
2023-01-09T18:17:02.687Z,12.68
2023-01-09T18:19:05.297Z,13.60
2023-01-09T18:21:14.605Z,13.15
2023-01-09T18:23:17.081Z,13.38
2023-01-09T18:25:19.528Z,12.73
2023-01-09T18:27:22.040Z,10.27
2023-01-09T18:29:24.622Z,17.85
2023-01-09T18:31:28.399Z,13.55
2023-01-09T18:33:31.057Z,6.78
2023-01-09T18:35:33.820Z,13.20
2023-01-09T18:37:39.029Z,15.90
2023-01-09T18:39:41.359Z,11.43
2023-01-09T18:41:43.775Z,14.70
2023-01-09T18:43:49.316Z,11.63
2023-01-09T18:45:51.773Z,7.45
2023-01-09T18:47:54.205Z,16.00
2023-01-09T18:50:00.049Z,15.88
2023-01-09T18:52:03.440Z,11.00
2023-01-09T18:54:09.842Z,11.13
2023-01-09T18:56:12.189Z,15.38
2023-01-09T18:58:14.815Z,12.13
2023-01-09T19:00:17.761Z,9.65
2023-01-09T19:02:22.202Z,10.70
2023-01-09T19:04:24.705Z,10.25
2023-01-09T19:06:28.049Z,7.13
2023-01-09T19:08:31.277Z,11.63
2023-01-09T19:10:36.498Z,7.82
2023-01-09T19:12:38.928Z,7.85
2023-01-09T19:14:41.434Z,16.58
2023-01-09T19:16:43.906Z,11.57
2023-01-09T19:18:46.493Z,9.05
2023-01-09T19:20:48.948Z,11.48
2023-01-09T19:22:51.564Z,8.30
2023-01-09T19:24:54.006Z,13.07
2023-01-09T19:26:59.245Z,11.45
2023-01-09T19:29:01.754Z,12.55
2023-01-09T19:31:04.673Z,7.93
2023-01-09T19:33:07.553Z,6.93
2023-01-09T19:35:10.165Z,11.57
2023-01-09T19:37:12.765Z,11.73
2023-01-09T19:39:15.753Z,14.55
2023-01-09T19:41:19.962Z,15.60
2023-01-09T19:43:28.128Z,9.38
2023-01-09T19:45:30.581Z,9.35
2023-01-09T19:47:35.693Z,12.85
2023-01-09T19:49:38.482Z,16.27
2023-01-09T19:51:42.382Z,13.05
2023-01-09T19:53:50.142Z,11.27
2023-01-09T19:55:52.496Z,10.07
2023-01-09T19:57:54.893Z,18.23
2023-01-09T20:00:02.815Z,15.48
2023-01-09T20:02:15.460Z,20.60
2023-01-09T20:04:18.729Z,7.85
2023-01-09T20:06:24.773Z,11.68
2023-01-09T20:08:27.189Z,9.00
2023-01-09T20:10:29.681Z,15.90
2023-01-09T20:12:32.539Z,14.90
2023-01-09T20:14:37.143Z,15.65
2023-01-09T20:16:42.985Z,13.18
2023-01-09T20:18:45.496Z,12.50
2023-01-09T20:20:52.507Z,12.10
2023-01-09T20:22:54.974Z,10.63
2023-01-09T20:24:57.330Z,17.25
2023-01-09T20:27:00.826Z,11.63
2023-01-09T20:29:04.102Z,9.90
2023-01-09T20:31:10.553Z,13.80
2023-01-09T20:33:16.479Z,11.05
2023-01-09T20:35:19.082Z,8.88
2023-01-09T20:37:21.647Z,10.10
2023-01-09T20:39:24.075Z,21.38
2023-01-09T20:41:29.507Z,15.65
2023-01-09T20:43:31.992Z,13.93
2023-01-09T20:45:34.921Z,9.35
2023-01-09T20:47:37.655Z,12.90
2023-01-09T20:49:42.689Z,11.88
2023-01-09T20:51:47.307Z,8.88
2023-01-09T20:53:58.447Z,10.02
2023-01-09T20:56:01.719Z,8.88
2023-01-09T20:58:04.137Z,9.75
2023-01-09T21:00:08.217Z,11.60
2023-01-09T21:02:14.398Z,8.85
2023-01-09T21:04:18.170Z,7.20
2023-01-09T21:06:25.622Z,9.85
2023-01-09T21:08:28.257Z,7.45
2023-01-09T21:10:31.903Z,6.72
2023-01-09T21:12:37.819Z,8.40
2023-01-09T21:14:40.254Z,6.03
2023-01-09T21:16:45.515Z,7.15
2023-01-09T21:18:55.103Z,6.57
2023-01-09T21:20:57.669Z,9.25
2023-01-09T21:23:02.727Z,8.35
2023-01-09T21:25:06.647Z,6.10
2023-01-09T21:27:09.381Z,12.20
2023-01-09T21:29:13.288Z,8.35
2023-01-09T21:31:17.668Z,6.38
2023-01-09T21:33:23.139Z,6.20
2023-01-09T21:35:25.841Z,6.50
2023-01-09T21:37:29.403Z,5.13
2023-01-09T21:39:34.561Z,5.65
2023-01-09T21:41:55.748Z,5.72
2023-01-09T21:44:17.043Z,5.70
2023-01-09T21:46:39.364Z,6.30
2023-01-09T21:48:41.726Z,5.03
2023-01-09T21:50:44.600Z,5.00
2023-01-09T21:52:47.005Z,8.32
2023-01-09T21:54:52.968Z,5.60
2023-01-09T21:56:55.297Z,6.05
2023-01-09T21:58:57.735Z,14.15
2023-01-09T22:01:00.896Z,8.57
2023-01-09T22:03:05.865Z,5.97
2023-01-09T22:05:08.883Z,8.75
2023-01-09T22:07:11.408Z,7.90
2023-01-09T22:09:14.521Z,10.30
2023-01-09T22:11:19.547Z,6.85
2023-01-09T22:13:22.245Z,6.38
2023-01-09T22:15:24.610Z,7.53
2023-01-09T22:17:28.540Z,8.52
2023-01-09T22:19:31.080Z,8.23
2023-01-09T22:21:34.004Z,6.80
2023-01-09T22:23:36.462Z,6.80
2023-01-09T22:25:39.307Z,7.82
2023-01-09T22:27:44.335Z,7.50
2023-01-09T22:29:46.959Z,6.80
2023-01-09T22:31:49.456Z,7.30
2023-01-09T22:33:53.772Z,9.48
2023-01-09T22:35:56.261Z,7.15
2023-01-09T22:37:58.699Z,7.70
2023-01-09T22:40:01.248Z,13.43
2023-01-09T22:42:03.988Z,17.90
2023-01-09T22:44:09.872Z,6.68
2023-01-09T22:46:12.499Z,7.85
2023-01-09T22:48:14.892Z,8.73
2023-01-09T22:50:17.462Z,9.73
2023-01-09T22:52:19.944Z,8.10
2023-01-09T22:54:22.383Z,7.97
2023-01-09T22:58:33.233Z,8.55
2023-01-09T23:00:38.291Z,6.88
2023-01-09T23:02:40.795Z,6.78
2023-01-09T23:04:43.275Z,5.97
2023-01-09T23:06:45.897Z,8.13
2023-01-09T23:08:52.876Z,6.93
2023-01-09T23:10:55.594Z,7.20
2023-01-09T23:12:58.090Z,5.88
2023-01-09T23:15:00.555Z,10.27
2023-01-09T23:17:09.770Z,5.60
2023-01-09T23:19:15.001Z,6.18
2023-01-09T23:21:17.441Z,8.40
2023-01-09T23:23:21.084Z,10.68
2023-01-09T23:25:23.539Z,8.50
2023-01-09T23:27:25.873Z,5.90
2023-01-09T23:29:28.661Z,6.00
2023-01-09T23:31:31.069Z,9.00
2023-01-09T23:33:36.170Z,8.50
2023-01-09T23:35:38.654Z,6.32
2023-01-09T23:37:41.067Z,8.15
2023-01-09T23:39:43.518Z,6.68
2023-01-09T23:42:04.431Z,11.77
2023-01-09T23:44:06.811Z,6.82
2023-01-09T23:46:09.656Z,6.78
2023-01-09T23:48:14.306Z,11.35
2023-01-09T23:50:19.317Z,8.88
2023-01-09T23:52:21.785Z,7.95
2023-01-09T23:54:24.418Z,9.55
2023-01-09T23:56:31.325Z,12.23
2023-01-09T23:58:33.707Z,8.63
